Currently 68°F in Hemet, California, USA
68°F
68°F / 51°F
calm
0.00"
Saturday, September 23, 2017 1:09 PM PDT

Hemet, California Weather Summary
Last 36 Hours

Temperature Winds Hourly Humidity Dewpoint
Time Report Norm Report Norm Max Gusts Precip. Rpt. Norm Rpt. Norm Pressure
1,2Sat 01:09 PM  68.2°F  86°F  calm  2 mph  12 mph  0.00"  42%  25%  43°F  46°F  29.89"
Sat 01:00 PM  67.5°F  86°F  5 mph W  2 mph  9 mph  0.00"  43%  26%  43°F  46°F  29.89"
Sat 12:00 PM  64.9°F  83°F  3 mph W  1 mph  9 mph  0.00"  50%  30%  45°F  47°F  29.90"
Sat 11:00 AM  62.1°F  79°F  5 mph W  1 mph  8 mph  0.00"  59%  35%  47°F  48°F  29.91"
Sat 10:00 AM  59.2°F  75°F  calm  calm  none  0.00"  66%  41%  47°F  49°F  29.92"
Sat 09:00 AM  55.9°F  72°F  calm  calm  none  0.00"  72%  46%  47°F  49°F  29.91"
Sat 08:00 AM  54.1°F  68°F  calm  calm  none  0.00"  77%  47%  47°F  46°F  29.90"
Sat 07:00 AM  50.7°F  64°F  calm  calm  none  0.00"  75%  47%  43°F  43°F  29.89"
3Sat 06:54 AM  50.7°F  64°F  calm  calm  none  ----  74%  47%  42°F  43°F  29.89"
Sat 06:00 AM  51.3°F  65°F  calm  calm  none  0.00"  73%  47%  43°F  43°F  29.88"
Sat 05:00 AM  52.5°F  65°F  calm  calm  none  0.00"  74%  48%  44°F  44°F  29.87"
Sat 04:00 AM  54.1°F  65°F  calm  calm  none  0.00"  79%  48%  48°F  44°F  29.87"
Sat 03:00 AM  55.0°F  65°F  calm  calm  none  0.00"  76%  49%  47°F  45°F  29.87"
Sat 02:00 AM  54.7°F  66°F  calm  calm  none  0.00"  73%  50%  46°F  46°F  29.88"
Sat 01:00 AM  56.7°F  66°F  calm  calm  none  0.00"  70%  50%  47°F  46°F  29.88"
Sat 12:00 AM  56.8°F  67°F  calm  calm  none  0.00"  70%  49%  47°F  46°F  29.88"
Fri 11:00 PM  57.6°F  68°F  calm  calm  none  0.00"  70%  48%  47°F  47°F  29.88"
Fri 10:00 PM  58.5°F  69°F  calm  calm  none  0.00"  68%  47%  48°F  47°F  29.89"
Fri 09:00 PM  59.7°F  71°F  calm  calm  8 mph  0.00"  61%  44%  46°F  48°F  29.89"
Fri 08:00 PM  60.4°F  74°F  calm  calm  9 mph  0.00"  59%  40%  45°F  48°F  29.88"
Fri 07:00 PM  63.1°F  78°F  5 mph SW  calm  12 mph  0.00"  56%  36%  47°F  48°F  29.86"
Fri 06:00 PM  67.8°F  83°F  5 mph SW  1 mph  12 mph  0.00"  46%  29%  46°F  47°F  29.85"
Fri 05:00 PM  70.3°F  87°F  5 mph W  3 mph  12 mph  0.00"  33%  25%  39°F  46°F  29.85"
Fri 04:00 PM  70.3°F  89°F  4 mph SW  3 mph  12 mph  0.00"  33%  23%  39°F  45°F  29.86"
Fri 03:00 PM  70.0°F  89°F  5 mph SE  3 mph  13 mph  0.00"  33%  22%  38°F  44°F  29.88"
Fri 02:00 PM  67.8°F  88°F  4 mph W  2 mph  12 mph  0.00"  38%  24%  40°F  45°F  29.90"
Fri 01:00 PM  66.6°F  86°F  5 mph W  2 mph  10 mph  0.00"  38%  26%  39°F  46°F  29.91"
Fri 12:00 PM  64.6°F  83°F  2 mph W  1 mph  9 mph  0.00"  45%  30%  42°F  48°F  29.93"
Fri 11:00 AM  61.3°F  79°F  3 mph W  1 mph  10 mph  0.00"  55%  35%  44°F  49°F  29.94"
Fri 10:00 AM  58.8°F  75°F  calm  calm  5 mph  0.00"  60%  42%  44°F  49°F  29.95"
Fri 09:00 AM  59.0°F  72°F  calm  calm  none  0.00"  60%  47%  45°F  49°F  29.94"
Fri 08:00 AM  52.0°F  68°F  calm  calm  none  0.00"  73%  48%  43°F  46°F  29.94"
Fri 07:00 AM  48.0°F  64°F  calm  calm  none  0.00"  76%  49%  41°F  44°F  29.92"
Fri 06:00 AM  48.4°F  64°F  calm  calm  none  0.00"  77%  49%  41°F  44°F  29.91"
Fri 05:00 AM  48.0°F  65°F  calm  calm  none  0.00"  78%  49%  41°F  44°F  29.90"
Fri 04:00 AM  48.6°F  65°F  calm  calm  none  0.00"  79%  49%  42°F  45°F  29.89"
Fri 03:00 AM  49.5°F  65°F  calm  calm  none  0.00"  79%  51%  43°F  46°F  29.89"
Fri 02:00 AM  51.4°F  66°F  calm  calm  none  0.00"  76%  51%  44°F  46°F  29.90"

  1. Current weather data. No green row appears if the current weather data is also the high or low for the current day.
  2. High temperature for the current day.
  3. Low temperature for the current day.

The Hemet weather pages are a service of WeatherCurrents. Hemet, California is located in the San Jacinto Valley, in western Riverside County, at the foot of the San Jacinto mountains.
Copyright ©Sat Sep 23 13:10:22 PDT 2017  WeatherCurrents. All rights reserved. - Submit questions and comments - Privacy Policy

This page automatically refreshes every 10 minutes.